createdAt,value
2019-05-01T00:03:26.586Z,12.00
2019-05-01T00:07:35.823Z,11.90
2019-05-01T00:11:40.381Z,11.80
2019-05-01T00:15:45.111Z,11.80
2019-05-01T00:19:49.673Z,11.80
2019-05-01T00:23:54.284Z,11.80
2019-05-01T00:27:58.845Z,11.80
2019-05-01T00:32:03.407Z,11.70
2019-05-01T00:36:07.919Z,11.70
2019-05-01T00:40:12.691Z,11.60
2019-05-01T00:44:17.259Z,11.50
2019-05-01T00:48:21.819Z,11.50
2019-05-01T00:52:26.386Z,11.50
2019-05-01T00:56:41.580Z,11.50
2019-05-01T01:01:08.265Z,11.40
2019-05-01T01:05:12.859Z,11.40
2019-05-01T01:09:17.822Z,11.40
2019-05-01T01:13:22.384Z,11.30
2019-05-01T01:17:26.924Z,11.30
2019-05-01T01:21:31.484Z,11.30
2019-05-01T01:25:36.078Z,11.20
2019-05-01T01:29:40.636Z,11.20
2019-05-01T01:33:45.296Z,11.20
2019-05-01T01:37:49.867Z,11.20
2019-05-01T01:41:54.898Z,11.20
2019-05-01T01:46:00.206Z,11.20
2019-05-01T01:50:05.132Z,11.20
2019-05-01T01:54:10.056Z,11.10
2019-05-01T01:58:15.377Z,11.10
2019-05-01T02:02:40.835Z,11.10
2019-05-01T02:06:45.444Z,11.10
2019-05-01T02:10:50.006Z,11.00
2019-05-01T02:14:54.566Z,10.90
2019-05-01T02:18:59.196Z,10.80
2019-05-01T02:23:03.733Z,10.80
2019-05-01T02:27:13.371Z,10.00
2019-05-01T02:31:29.700Z,10.70
2019-05-01T02:35:35.964Z,10.60
2019-05-01T02:39:42.824Z,10.60
2019-05-01T02:43:50.237Z,10.60
2019-05-01T02:47:55.003Z,10.50
2019-05-01T02:51:59.905Z,10.50
2019-05-01T02:56:29.845Z,10.50
2019-05-01T03:00:35.007Z,10.50
2019-05-01T03:04:40.176Z,10.50
2019-05-01T03:08:45.697Z,10.40
2019-05-01T03:12:52.050Z,10.40
2019-05-01T03:17:00.640Z,10.40
2019-05-01T03:21:22.788Z,10.30
2019-05-01T03:25:27.585Z,10.30
2019-05-01T03:29:32.704Z,10.30
2019-05-01T03:33:37.315Z,10.30
2019-05-01T03:37:42.061Z,10.30
2019-05-01T03:41:47.245Z,10.20
2019-05-01T03:45:52.177Z,10.20
2019-05-01T03:49:57.094Z,10.20
2019-05-01T03:54:02.301Z,10.20
2019-05-01T03:58:06.993Z,10.10
2019-05-01T04:02:33.556Z,10.10
2019-05-01T04:06:35.060Z,10.10
2019-05-01T04:10:39.614Z,10.00
2019-05-01T04:14:44.778Z,10.00
2019-05-01T04:18:49.877Z,10.00
2019-05-01T04:22:54.529Z,10.00
2019-05-01T04:26:59.289Z,10.00
2019-05-01T04:31:14.109Z,10.10
2019-05-01T04:35:23.755Z,10.00
2019-05-01T04:39:28.920Z,10.00
2019-05-01T04:43:33.808Z,10.00
2019-05-01T04:47:38.825Z,10.00
2019-05-01T04:51:43.688Z,10.00
2019-05-01T04:55:48.345Z,10.00
2019-05-01T04:59:53.603Z,10.00
2019-05-01T05:03:58.895Z,9.90
2019-05-01T05:08:04.089Z,9.90
2019-05-01T05:12:10.685Z,9.90
2019-05-01T05:16:34.140Z,9.90
2019-05-01T05:20:39.092Z,9.80
2019-05-01T05:24:44.080Z,9.80
2019-05-01T05:28:50.124Z,9.80
2019-05-01T05:32:57.003Z,9.80
2019-05-01T05:37:06.820Z,9.80
2019-05-01T05:41:12.145Z,9.80
2019-05-01T05:45:16.722Z,9.90
2019-05-01T05:49:22.323Z,9.90
2019-05-01T05:53:33.896Z,9.90
2019-05-01T05:57:59.996Z,9.90
2019-05-01T06:02:34.403Z,9.90
2019-05-01T06:07:02.516Z,9.90
2019-05-01T06:11:36.417Z,9.90
2019-05-01T06:16:00.241Z,10.00
2019-05-01T06:20:25.865Z,10.00
2019-05-01T06:24:40.502Z,10.00
2019-05-01T06:28:43.401Z,10.00
2019-05-01T06:32:48.376Z,10.00
2019-05-01T06:36:53.045Z,10.10
2019-05-01T06:40:59.973Z,10.20
2019-05-01T06:45:13.021Z,10.20
2019-05-01T06:49:36.255Z,10.30
2019-05-01T06:53:42.539Z,10.30
2019-05-01T06:57:47.532Z,10.40
2019-05-01T07:01:53.316Z,10.40
2019-05-01T07:05:58.828Z,10.50
2019-05-01T07:10:04.629Z,10.60
2019-05-01T07:14:11.074Z,10.70
2019-05-01T07:18:18.948Z,10.70
2019-05-01T07:22:22.368Z,10.70
2019-05-01T07:26:26.989Z,10.80
2019-05-01T07:30:49.967Z,10.90
2019-05-01T07:34:56.857Z,11.10
2019-05-01T07:39:00.115Z,11.40
2019-05-01T07:43:24.066Z,11.60
2019-05-01T07:47:42.927Z,11.60
2019-05-01T07:51:51.877Z,11.90
2019-05-01T07:55:56.845Z,12.60
2019-05-01T08:00:03.725Z,13.30
2019-05-01T08:04:08.011Z,13.60
2019-05-01T08:08:12.579Z,13.90
2019-05-01T08:12:18.908Z,14.60
2019-05-01T08:16:23.384Z,14.90
2019-05-01T08:20:33.951Z,15.00
2019-05-01T08:24:38.557Z,15.30
2019-05-01T08:29:17.228Z,15.20
2019-05-01T08:33:39.577Z,15.30
2019-05-01T08:37:44.177Z,15.50
2019-05-01T08:41:48.704Z,16.00
2019-05-01T08:46:11.844Z,16.20
2019-05-01T08:50:19.960Z,16.70
2019-05-01T08:54:28.856Z,16.50
2019-05-01T08:58:31.529Z,16.20
2019-05-01T09:02:36.882Z,15.80
2019-05-01T09:06:43.784Z,15.40
2019-05-01T09:10:49.765Z,15.10
2019-05-01T09:14:54.480Z,14.90
2019-05-01T09:18:59.051Z,14.70
2019-05-01T09:23:03.728Z,14.60
2019-05-01T09:27:29.404Z,14.60
2019-05-01T09:31:35.376Z,14.50
2019-05-01T09:35:40.485Z,14.40
2019-05-01T09:39:47.287Z,14.40
2019-05-01T09:43:52.203Z,14.30
2019-05-01T09:47:57.655Z,14.40
2019-05-01T09:52:14.537Z,14.40
2019-05-01T09:56:22.188Z,14.50
2019-05-01T10:00:31.320Z,14.40
2019-05-01T10:04:35.894Z,14.50
2019-05-01T10:08:41.926Z,14.50
2019-05-01T10:12:48.374Z,14.50
2019-05-01T10:16:52.843Z,14.60
2019-05-01T10:20:57.404Z,14.60
2019-05-01T10:25:02.018Z,14.70
2019-05-01T10:29:25.919Z,14.80
2019-05-01T10:33:38.264Z,14.80
2019-05-01T10:37:42.947Z,14.80
2019-05-01T10:41:47.909Z,14.90
2019-05-01T10:45:52.604Z,15.00
2019-05-01T10:49:57.172Z,15.10
2019-05-01T10:54:01.710Z,15.20
2019-05-01T10:58:06.288Z,15.30
2019-05-01T11:02:12.538Z,15.40
2019-05-01T11:06:17.104Z,15.50
2019-05-01T11:10:21.672Z,15.50
2019-05-01T11:14:26.210Z,15.60
2019-05-01T11:18:30.764Z,15.70
2019-05-01T11:22:35.350Z,15.80
2019-05-01T11:26:39.997Z,15.90
2019-05-01T11:30:44.631Z,15.90
2019-05-01T11:35:17.544Z,16.00
2019-05-01T11:39:35.921Z,16.10
2019-05-01T11:43:38.380Z,16.10
2019-05-01T11:47:42.962Z,16.20
2019-05-01T11:51:47.525Z,16.20
2019-05-01T11:55:52.088Z,16.40
2019-05-01T11:59:56.636Z,16.50
2019-05-01T12:04:01.196Z,16.60
2019-05-01T12:08:05.785Z,16.80
2019-05-01T12:12:13.016Z,16.80
2019-05-01T12:16:26.163Z,16.90
2019-05-01T12:20:30.691Z,17.10
2019-05-01T12:24:35.300Z,17.10
2019-05-01T12:28:39.888Z,17.20
2019-05-01T12:32:44.467Z,17.30
2019-05-01T12:36:49.633Z,17.50
2019-05-01T12:41:12.022Z,17.60
2019-05-01T12:45:17.288Z,17.70
2019-05-01T12:49:21.852Z,17.90
2019-05-01T12:53:36.652Z,18.10
2019-05-01T12:57:41.228Z,18.20
2019-05-01T13:01:45.748Z,18.40
2019-05-01T13:05:50.317Z,18.60
2019-05-01T13:09:54.874Z,18.70
2019-05-01T13:13:59.440Z,18.90
2019-05-01T13:18:04.107Z,19.00
2019-05-01T13:22:08.694Z,19.10
2019-05-01T13:26:36.865Z,19.40
2019-05-01T13:30:58.043Z,19.60
2019-05-01T13:35:02.604Z,19.90
2019-05-01T13:39:10.136Z,19.90
2019-05-01T13:43:14.811Z,19.90
2019-05-01T13:47:19.338Z,19.90
2019-05-01T13:51:23.897Z,20.00
2019-05-01T13:55:28.776Z,20.00
2019-05-01T13:59:33.349Z,20.10
2019-05-01T14:03:37.917Z,20.20
2019-05-01T14:07:42.446Z,20.20
2019-05-01T14:11:47.015Z,20.20
2019-05-01T14:15:51.563Z,20.20
2019-05-01T14:20:05.807Z,20.30
2019-05-01T14:24:32.108Z,20.20
2019-05-01T14:28:36.738Z,20.00
2019-05-01T14:32:41.340Z,19.90
2019-05-01T14:36:46.007Z,19.90
2019-05-01T14:40:50.557Z,19.80
2019-05-01T14:44:55.075Z,19.80
2019-05-01T14:48:59.664Z,19.80
2019-05-01T14:53:04.340Z,19.80
2019-05-01T14:57:08.912Z,19.80
2019-05-01T15:01:13.484Z,19.80
2019-05-01T15:05:18.010Z,19.80
2019-05-01T15:09:22.574Z,19.80
2019-05-01T15:13:44.999Z,19.80
2019-05-01T15:18:01.432Z,19.80
2019-05-01T15:22:05.994Z,19.70
2019-05-01T15:26:10.552Z,19.80
2019-05-01T15:30:18.344Z,19.80
2019-05-01T15:34:22.897Z,19.90
2019-05-01T15:38:27.443Z,19.90
2019-05-01T15:42:37.414Z,20.00
2019-05-01T15:46:41.933Z,19.90
2019-05-01T15:50:46.503Z,20.00
2019-05-01T15:54:51.066Z,19.90
2019-05-01T15:58:55.668Z,19.80
2019-05-01T16:03:00.227Z,19.80
2019-05-01T16:07:04.740Z,19.80
2019-05-01T16:11:28.328Z,19.70
2019-05-01T16:15:34.596Z,19.50
2019-05-01T16:19:39.160Z,19.40
2019-05-01T16:23:43.755Z,19.40
2019-05-01T16:27:48.427Z,19.40
2019-05-01T16:31:52.975Z,19.40
2019-05-01T16:35:57.541Z,19.30
2019-05-01T16:40:17.195Z,19.20
2019-05-01T16:44:21.837Z,19.10
2019-05-01T16:48:26.412Z,19.10
2019-05-01T16:52:32.503Z,19.10
2019-05-01T16:56:37.168Z,19.00
2019-05-01T17:00:58.449Z,19.00
2019-05-01T17:05:15.408Z,18.80
2019-05-01T17:09:39.101Z,18.70
2019-05-01T17:13:43.623Z,18.60
2019-05-01T17:17:48.187Z,18.50
2019-05-01T17:21:52.747Z,18.30
2019-05-01T17:25:57.343Z,18.30
2019-05-01T17:30:01.889Z,18.20
2019-05-01T17:34:09.381Z,18.10
2019-05-01T17:38:12.632Z,18.10
2019-05-01T17:42:17.197Z,17.90
2019-05-01T17:46:21.765Z,17.90
2019-05-01T17:50:26.324Z,17.80
2019-05-01T17:54:30.835Z,17.70
2019-05-01T17:58:35.399Z,17.50
2019-05-01T18:02:49.902Z,17.40
2019-05-01T18:06:54.455Z,17.20
2019-05-01T18:10:59.012Z,17.10
2019-05-01T18:15:03.522Z,17.00
2019-05-01T18:19:09.938Z,16.80
2019-05-01T18:23:32.573Z,16.70
2019-05-01T18:28:02.137Z,16.50
2019-05-01T18:32:10.084Z,16.40
2019-05-01T18:36:15.095Z,16.20
2019-05-01T18:40:38.953Z,16.10
2019-05-01T18:44:47.400Z,16.30
2019-05-01T18:48:49.863Z,16.40
2019-05-01T18:52:54.428Z,16.40
2019-05-01T18:56:59.003Z,16.40
2019-05-01T19:01:04.171Z,16.40
2019-05-01T19:05:10.703Z,16.30
2019-05-01T19:09:29.105Z,16.20
2019-05-01T19:13:22.620Z,16.20
2019-05-01T19:17:27.208Z,16.10
2019-05-01T19:21:33.637Z,16.00
2019-05-01T19:25:38.258Z,15.90
2019-05-01T19:29:42.803Z,15.80
2019-05-01T19:33:47.384Z,15.80
2019-05-01T19:37:52.900Z,15.70
2019-05-01T19:41:58.199Z,15.60
2019-05-01T19:46:02.748Z,15.50
2019-05-01T19:50:09.631Z,15.40
2019-05-01T19:54:14.323Z,15.30
2019-05-01T19:58:18.849Z,15.20
2019-05-01T20:02:24.113Z,15.10
2019-05-01T20:06:29.004Z,15.00
2019-05-01T20:10:33.547Z,14.90
2019-05-01T20:14:38.131Z,14.70
2019-05-01T20:18:42.640Z,14.70
2019-05-01T20:22:48.237Z,14.20
2019-05-01T20:26:53.464Z,13.90
2019-05-01T20:30:58.120Z,13.60
2019-05-01T20:35:02.677Z,13.50
2019-05-01T20:39:08.584Z,13.30
2019-05-01T20:43:13.151Z,13.60
2019-05-01T20:47:34.078Z,13.70
2019-05-01T20:51:23.911Z,13.70
2019-05-01T20:55:28.496Z,13.70
2019-05-01T20:59:35.275Z,13.70
2019-05-01T21:03:41.084Z,13.70
2019-05-01T21:08:03.236Z,13.70
2019-05-01T21:12:07.783Z,13.60
2019-05-01T21:16:12.348Z,13.50
2019-05-01T21:20:16.999Z,13.50
2019-05-01T21:24:21.554Z,13.40
2019-05-01T21:28:26.152Z,13.30
2019-05-01T21:32:30.696Z,13.30
2019-05-01T21:36:35.267Z,13.20
2019-05-01T21:40:41.149Z,13.20
2019-05-01T21:44:46.093Z,13.10
2019-05-01T21:48:50.667Z,13.00
2019-05-01T21:52:58.134Z,13.00
2019-05-01T21:57:01.451Z,12.90
2019-05-01T22:01:07.311Z,12.80
2019-05-01T22:05:11.895Z,12.80
2019-05-01T22:09:21.655Z,12.70
2019-05-01T22:13:26.260Z,12.70
2019-05-01T22:17:48.488Z,12.20
2019-05-01T22:22:00.737Z,11.90
2019-05-01T22:26:07.236Z,12.20
2019-05-01T22:30:25.413Z,12.20
2019-05-01T22:34:54.985Z,12.20
2019-05-01T22:39:02.320Z,12.20
2019-05-01T22:43:06.687Z,12.10
2019-05-01T22:47:15.133Z,12.10
2019-05-01T22:51:21.190Z,12.10
2019-05-01T22:55:26.684Z,12.00
2019-05-01T22:59:31.457Z,12.00
2019-05-01T23:03:44.998Z,11.90
2019-05-01T23:07:49.537Z,11.80
2019-05-01T23:11:54.093Z,11.80
2019-05-01T23:15:58.639Z,11.70
2019-05-01T23:20:04.015Z,11.30
2019-05-01T23:24:09.515Z,11.00
2019-05-01T23:28:14.122Z,10.80
2019-05-01T23:32:19.036Z,10.60
2019-05-01T23:36:24.080Z,10.50
2019-05-01T23:40:28.757Z,10.40
2019-05-01T23:44:33.319Z,10.30
2019-05-01T23:48:37.837Z,10.20
2019-05-01T23:52:42.429Z,10.10
2019-05-01T23:56:46.979Z,10.40
